CTV418 WIOO-WIII
Flight info
| Callsign | CTV418 |
|---|---|
| Flight time | 1h 3m |
| Altitude | 36000 |
| Route | MASR1C MASRI W38 AMBOY AMBO2H |
| Aircraft | A320/L-V/N |
Departure
| Time | 2026-05-05 16:01 |
|---|---|
| Airport | Supadio International Airport (WIOO) |
Arrival
| Time | 2026-05-05 17:04 |
|---|---|
| Airport | Soekarno-Hatta International Airport (WIII) |
| Time | Latitude | Longitude | Altitude | Speed | Heading |
|---|---|---|---|---|---|
| 2026-05-05 15:51 | -0.14708 | 109.40385 | 13 ft | 0 kts | 71° |
| 2026-05-05 15:54 | -0.14712 | 109.40372 | 13 ft | 2 kts | 71° |
| 2026-05-05 15:54 | -0.14715 | 109.40363 | 13 ft | 1 kts | 72° |
| 2026-05-05 15:54 | -0.14721 | 109.40353 | 13 ft | 1 kts | 21° |
| 2026-05-05 15:55 | -0.14730 | 109.40352 | 13 ft | 1 kts | 335° |
| 2026-05-05 15:55 | -0.14736 | 109.40356 | 13 ft | 0 kts | 338° |
| 2026-05-05 15:57 | -0.14726 | 109.40352 | 13 ft | 3 kts | 339° |
| 2026-05-05 15:57 | -0.14693 | 109.40340 | 13 ft | 6 kts | 341° |
| 2026-05-05 15:57 | -0.14637 | 109.40320 | 12 ft | 8 kts | 339° |
| 2026-05-05 15:57 | -0.14573 | 109.40295 | 12 ft | 11 kts | 337° |
| 2026-05-05 15:58 | -0.14486 | 109.40257 | 11 ft | 14 kts | 336° |
| 2026-05-05 15:58 | -0.14420 | 109.40195 | 10 ft | 15 kts | 264° |
| 2026-05-05 15:58 | -0.14392 | 109.40113 | 9 ft | 14 kts | 337° |
| 2026-05-05 15:58 | -0.14297 | 109.40074 | 10 ft | 15 kts | 337° |
| 2026-05-05 15:59 | -0.14220 | 109.40004 | 9 ft | 14 kts | 324° |
| 2026-05-05 15:59 | -0.14167 | 109.40020 | 9 ft | 7 kts | 120° |
| 2026-05-05 15:59 | -0.14190 | 109.40031 | 9 ft | 0 kts | 159° |
| 2026-05-05 16:00 | -0.14203 | 109.40036 | 9 ft | 10 kts | 159° |
| 2026-05-05 16:00 | -0.14547 | 109.40173 | 10 ft | 93 kts | 158° |
| 2026-05-05 16:01 | -0.15377 | 109.40511 | 26 ft | 156 kts | 159° |
| 2026-05-05 16:01 | -0.16347 | 109.40896 | 724 ft | 150 kts | 158° |
| 2026-05-05 16:01 | -0.17313 | 109.41270 | 1344 ft | 151 kts | 168° |
| 2026-05-05 16:01 | -0.18405 | 109.41298 | 1807 ft | 163 kts | 184° |
| 2026-05-05 16:02 | -0.19591 | 109.41180 | 2138 ft | 179 kts | 186° |
| 2026-05-05 16:02 | -0.20893 | 109.41041 | 2466 ft | 195 kts | 185° |
| 2026-05-05 16:02 | -0.22308 | 109.40898 | 2783 ft | 211 kts | 185° |
| 2026-05-05 16:02 | -0.23853 | 109.40755 | 3025 ft | 232 kts | 184° |
| 2026-05-05 16:03 | -0.25535 | 109.40607 | 3358 ft | 249 kts | 184° |
| 2026-05-05 16:03 | -0.27328 | 109.40453 | 3666 ft | 266 kts | 184° |
| 2026-05-05 16:03 | -0.29233 | 109.40291 | 4374 ft | 276 kts | 184° |
| 2026-05-05 16:03 | -0.31131 | 109.40131 | 5274 ft | 276 kts | 184° |
| 2026-05-05 16:04 | -0.32952 | 109.39978 | 6038 ft | 279 kts | 184° |
| 2026-05-05 16:04 | -0.34911 | 109.39814 | 6817 ft | 283 kts | 184° |
| 2026-05-05 16:04 | -0.36923 | 109.39647 | 7592 ft | 287 kts | 184° |
| 2026-05-05 16:04 | -0.38912 | 109.39481 | 8328 ft | 291 kts | 184° |
| 2026-05-05 16:05 | -0.40952 | 109.39311 | 9051 ft | 295 kts | 184° |
| 2026-05-05 16:05 | -0.43019 | 109.39139 | 9763 ft | 299 kts | 184° |
| 2026-05-05 16:05 | -0.45131 | 109.38962 | 10393 ft | 305 kts | 184° |
| 2026-05-05 16:05 | -0.47302 | 109.38780 | 10735 ft | 322 kts | 184° |
| 2026-05-05 16:06 | -0.49611 | 109.38587 | 11028 ft | 339 kts | 185° |
| 2026-05-05 16:06 | -0.52040 | 109.38385 | 11310 ft | 356 kts | 185° |
| 2026-05-05 16:06 | -0.54585 | 109.38173 | 11575 ft | 372 kts | 185° |
| 2026-05-05 16:06 | -0.57201 | 109.37955 | 11822 ft | 386 kts | 185° |
| 2026-05-05 16:07 | -0.59953 | 109.37725 | 12059 ft | 400 kts | 184° |
| 2026-05-05 16:07 | -0.62828 | 109.37485 | 12288 ft | 413 kts | 184° |
| 2026-05-05 16:07 | -0.65741 | 109.37242 | 12648 ft | 421 kts | 184° |
| 2026-05-05 16:07 | -0.68703 | 109.36994 | 13181 ft | 424 kts | 184° |
| 2026-05-05 16:08 | -0.71687 | 109.36744 | 13690 ft | 426 kts | 184° |
| 2026-05-05 16:08 | -0.74725 | 109.36491 | 14185 ft | 429 kts | 184° |
| 2026-05-05 16:08 | -0.77725 | 109.36241 | 14658 ft | 432 kts | 184° |
| 2026-05-05 16:08 | -0.80763 | 109.35987 | 15101 ft | 435 kts | 184° |
| 2026-05-05 16:09 | -0.83812 | 109.35733 | 15528 ft | 438 kts | 184° |
| 2026-05-05 16:09 | -0.86853 | 109.35480 | 15946 ft | 441 kts | 184° |
| 2026-05-05 16:09 | -0.89944 | 109.35222 | 16353 ft | 444 kts | 184° |
| 2026-05-05 16:09 | -0.93063 | 109.34939 | 16756 ft | 447 kts | 185° |
| 2026-05-05 16:10 | -0.96181 | 109.34603 | 17143 ft | 450 kts | 185° |
| 2026-05-05 16:10 | -0.99358 | 109.34248 | 17533 ft | 452 kts | 185° |
| 2026-05-05 16:10 | -1.02488 | 109.33898 | 17911 ft | 455 kts | 185° |
| 2026-05-05 16:10 | -1.05680 | 109.33545 | 18268 ft | 458 kts | 185° |
| 2026-05-05 16:11 | -1.08907 | 109.33191 | 18620 ft | 460 kts | 185° |
| 2026-05-05 16:11 | -1.18575 | 109.32141 | 19620 ft | 467 kts | 185° |
| 2026-05-05 16:12 | -1.21833 | 109.31787 | 19951 ft | 469 kts | 185° |
| 2026-05-05 16:12 | -1.28405 | 109.31074 | 20599 ft | 473 kts | 185° |
| 2026-05-05 16:13 | -1.38070 | 109.28405 | 21421 ft | 485 kts | 205° |
| 2026-05-05 16:13 | -1.41052 | 109.26823 | 21694 ft | 487 kts | 207° |
| 2026-05-05 16:13 | -1.44047 | 109.25150 | 21966 ft | 489 kts | 207° |
| 2026-05-05 16:14 | -1.50239 | 109.22222 | 22488 ft | 491 kts | 201° |
| 2026-05-05 16:14 | -1.56613 | 109.19550 | 23013 ft | 493 kts | 201° |
| 2026-05-05 16:15 | -1.63026 | 109.16815 | 23574 ft | 494 kts | 201° |
| 2026-05-05 16:15 | -1.69388 | 109.14060 | 24245 ft | 492 kts | 202° |
| 2026-05-05 16:16 | -1.75656 | 109.11332 | 24877 ft | 490 kts | 202° |
| 2026-05-05 16:16 | -1.81929 | 109.08596 | 25495 ft | 489 kts | 202° |
| 2026-05-05 16:17 | -1.88206 | 109.05856 | 26096 ft | 488 kts | 202° |
| 2026-05-05 16:17 | -1.91327 | 109.04494 | 26428 ft | 487 kts | 202° |
| 2026-05-05 16:18 | -1.97534 | 109.01784 | 27077 ft | 485 kts | 202° |
| 2026-05-05 16:18 | -2.00636 | 109.00430 | 27400 ft | 484 kts | 202° |
| 2026-05-05 16:18 | -2.06832 | 108.97726 | 28028 ft | 482 kts | 202° |
| 2026-05-05 16:19 | -2.09896 | 108.96389 | 28345 ft | 481 kts | 202° |
| 2026-05-05 16:19 | -2.12984 | 108.95045 | 28667 ft | 480 kts | 202° |
| 2026-05-05 16:19 | -2.19162 | 108.92359 | 29315 ft | 479 kts | 202° |
| 2026-05-05 16:20 | -2.25305 | 108.89681 | 29926 ft | 478 kts | 203° |
| 2026-05-05 16:20 | -2.31422 | 108.87010 | 30550 ft | 477 kts | 202° |
| 2026-05-05 16:21 | -2.37546 | 108.84335 | 31154 ft | 476 kts | 202° |
| 2026-05-05 16:22 | -2.46661 | 108.80352 | 32050 ft | 474 kts | 202° |
| 2026-05-05 16:22 | -2.52709 | 108.77710 | 32608 ft | 474 kts | 202° |
| 2026-05-05 16:23 | -2.58773 | 108.75061 | 33232 ft | 473 kts | 202° |
| 2026-05-05 16:23 | -2.61814 | 108.73733 | 33571 ft | 472 kts | 202° |
| 2026-05-05 16:23 | -2.67844 | 108.71099 | 34249 ft | 469 kts | 202° |
| 2026-05-05 16:24 | -2.70856 | 108.69783 | 34516 ft | 469 kts | 202° |
| 2026-05-05 16:24 | -2.73853 | 108.68473 | 34731 ft | 470 kts | 203° |
| 2026-05-05 16:24 | -2.79899 | 108.65830 | 35138 ft | 471 kts | 203° |
| 2026-05-05 16:25 | -2.82917 | 108.64510 | 35336 ft | 471 kts | 203° |
| 2026-05-05 16:25 | -2.88935 | 108.61880 | 35671 ft | 472 kts | 203° |
| 2026-05-05 16:25 | -2.91943 | 108.60564 | 35820 ft | 473 kts | 203° |
| 2026-05-05 16:26 | -3.04230 | 108.55193 | 35857 ft | 475 kts | 203° |
| 2026-05-05 16:27 | -3.10306 | 108.52535 | 35858 ft | 474 kts | 203° |
| 2026-05-05 16:27 | -3.16409 | 108.49877 | 35848 ft | 475 kts | 203° |
| 2026-05-05 16:28 | -3.22472 | 108.47235 | 35847 ft | 474 kts | 203° |
| 2026-05-05 16:28 | -3.28541 | 108.44582 | 35847 ft | 474 kts | 203° |
| 2026-05-05 16:29 | -3.34619 | 108.41924 | 35838 ft | 473 kts | 203° |
| 2026-05-05 16:29 | -3.40632 | 108.39292 | 35834 ft | 474 kts | 203° |
| 2026-05-05 16:30 | -3.46727 | 108.36625 | 35835 ft | 473 kts | 203° |
| 2026-05-05 16:30 | -3.52762 | 108.33978 | 35842 ft | 473 kts | 203° |
| 2026-05-05 16:31 | -3.58802 | 108.31303 | 35839 ft | 473 kts | 204° |
| 2026-05-05 16:31 | -3.64832 | 108.28645 | 35832 ft | 473 kts | 203° |
| 2026-05-05 16:32 | -3.70867 | 108.25995 | 35833 ft | 473 kts | 203° |
| 2026-05-05 16:32 | -3.76914 | 108.23346 | 35831 ft | 473 kts | 203° |
| 2026-05-05 16:33 | -3.82981 | 108.20689 | 35835 ft | 473 kts | 203° |
| 2026-05-05 16:33 | -3.89021 | 108.18042 | 35848 ft | 473 kts | 203° |
| 2026-05-05 16:34 | -3.95071 | 108.15391 | 35850 ft | 472 kts | 203° |
| 2026-05-05 16:34 | -4.01119 | 108.12740 | 35844 ft | 473 kts | 203° |
| 2026-05-05 16:35 | -4.07182 | 108.10081 | 35847 ft | 473 kts | 203° |
| 2026-05-05 16:35 | -4.13209 | 108.07444 | 35852 ft | 473 kts | 203° |
| 2026-05-05 16:36 | -4.19246 | 108.04810 | 35854 ft | 473 kts | 203° |
| 2026-05-05 16:36 | -4.25285 | 108.02168 | 35856 ft | 472 kts | 203° |
| 2026-05-05 16:37 | -4.31361 | 107.99504 | 35853 ft | 472 kts | 203° |
| 2026-05-05 16:37 | -4.37385 | 107.96861 | 35843 ft | 473 kts | 203° |
| 2026-05-05 16:38 | -4.43437 | 107.94205 | 35844 ft | 473 kts | 203° |
| 2026-05-05 16:38 | -4.49467 | 107.91560 | 35860 ft | 473 kts | 203° |
| 2026-05-05 16:39 | -4.55518 | 107.88904 | 35860 ft | 473 kts | 203° |
| 2026-05-05 16:39 | -4.61568 | 107.86247 | 35296 ft | 475 kts | 203° |
| 2026-05-05 16:40 | -4.64623 | 107.84905 | 34767 ft | 470 kts | 203° |
| 2026-05-05 16:40 | -4.67618 | 107.83590 | 33905 ft | 471 kts | 203° |
| 2026-05-05 16:40 | -4.70606 | 107.82278 | 32831 ft | 475 kts | 203° |
| 2026-05-05 16:40 | -4.73670 | 107.80933 | 31788 ft | 480 kts | 203° |
| 2026-05-05 16:41 | -4.76731 | 107.79589 | 30770 ft | 485 kts | 203° |
| 2026-05-05 16:41 | -4.79830 | 107.78228 | 29707 ft | 490 kts | 203° |
| 2026-05-05 16:41 | -4.82953 | 107.76856 | 28591 ft | 495 kts | 203° |
| 2026-05-05 16:41 | -4.86150 | 107.75452 | 27438 ft | 501 kts | 202° |
| 2026-05-05 16:42 | -4.89346 | 107.74046 | 26299 ft | 504 kts | 202° |
| 2026-05-05 16:42 | -4.92571 | 107.72629 | 25249 ft | 505 kts | 202° |
| 2026-05-05 16:42 | -4.95757 | 107.71227 | 24519 ft | 498 kts | 202° |
| 2026-05-05 16:42 | -4.98914 | 107.69836 | 24058 ft | 486 kts | 202° |
| 2026-05-05 16:43 | -5.01979 | 107.68486 | 23868 ft | 470 kts | 202° |
| 2026-05-05 16:43 | -5.04927 | 107.67187 | 23863 ft | 450 kts | 202° |
| 2026-05-05 16:43 | -5.07729 | 107.65951 | 23858 ft | 432 kts | 202° |
| 2026-05-05 16:43 | -5.10447 | 107.64754 | 23855 ft | 415 kts | 202° |
| 2026-05-05 16:44 | -5.13058 | 107.63608 | 23851 ft | 398 kts | 202° |
| 2026-05-05 16:44 | -5.15554 | 107.62515 | 23848 ft | 382 kts | 202° |
| 2026-05-05 16:44 | -5.17910 | 107.61433 | 23829 ft | 368 kts | 208° |
| 2026-05-05 16:44 | -5.19850 | 107.59823 | 23799 ft | 355 kts | 231° |
| 2026-05-05 16:45 | -5.21096 | 107.57649 | 23250 ft | 359 kts | 248° |
| 2026-05-05 16:45 | -5.21987 | 107.55301 | 22663 ft | 364 kts | 249° |
| 2026-05-05 16:45 | -5.22872 | 107.52905 | 22087 ft | 369 kts | 249° |
| 2026-05-05 16:45 | -5.23778 | 107.50499 | 21518 ft | 374 kts | 249° |
| 2026-05-05 16:46 | -5.24721 | 107.48044 | 20952 ft | 377 kts | 249° |
| 2026-05-05 16:46 | -5.25671 | 107.45600 | 20458 ft | 378 kts | 249° |
| 2026-05-05 16:46 | -5.26636 | 107.43132 | 19986 ft | 377 kts | 249° |
| 2026-05-05 16:46 | -5.27597 | 107.40681 | 19532 ft | 376 kts | 249° |
| 2026-05-05 16:47 | -5.28553 | 107.38248 | 19074 ft | 376 kts | 249° |
| 2026-05-05 16:47 | -5.29504 | 107.35825 | 18623 ft | 374 kts | 249° |
| 2026-05-05 16:47 | -5.30466 | 107.33368 | 18159 ft | 373 kts | 249° |
| 2026-05-05 16:47 | -5.31416 | 107.30934 | 17708 ft | 371 kts | 249° |
| 2026-05-05 16:48 | -5.32352 | 107.28538 | 17259 ft | 369 kts | 249° |
| 2026-05-05 16:48 | -5.33291 | 107.26138 | 16813 ft | 367 kts | 249° |
| 2026-05-05 16:48 | -5.34221 | 107.23766 | 16386 ft | 365 kts | 249° |
| 2026-05-05 16:48 | -5.35154 | 107.21392 | 15960 ft | 362 kts | 249° |
| 2026-05-05 16:49 | -5.36083 | 107.19022 | 15539 ft | 360 kts | 249° |
| 2026-05-05 16:49 | -5.36992 | 107.16699 | 15122 ft | 357 kts | 249° |
| 2026-05-05 16:49 | -5.37903 | 107.14368 | 14699 ft | 354 kts | 249° |
| 2026-05-05 16:49 | -5.38802 | 107.12066 | 14297 ft | 351 kts | 249° |
| 2026-05-05 16:50 | -5.39698 | 107.09770 | 13891 ft | 348 kts | 248° |
| 2026-05-05 16:50 | -5.40569 | 107.07535 | 13495 ft | 345 kts | 248° |
| 2026-05-05 16:50 | -5.41443 | 107.05295 | 13094 ft | 343 kts | 248° |
| 2026-05-05 16:50 | -5.42310 | 107.03072 | 12695 ft | 340 kts | 248° |
| 2026-05-05 16:51 | -5.43168 | 107.00870 | 12293 ft | 337 kts | 248° |
| 2026-05-05 16:51 | -5.44030 | 106.98660 | 11888 ft | 335 kts | 248° |
| 2026-05-05 16:51 | -5.44875 | 106.96494 | 11488 ft | 333 kts | 248° |
| 2026-05-05 16:51 | -5.45719 | 106.94330 | 11084 ft | 330 kts | 248° |
| 2026-05-05 16:52 | -5.46575 | 106.92196 | 10692 ft | 328 kts | 244° |
| 2026-05-05 16:52 | -5.47947 | 106.90411 | 10303 ft | 321 kts | 215° |
| 2026-05-05 16:52 | -5.49965 | 106.89543 | 9971 ft | 310 kts | 186° |
| 2026-05-05 16:52 | -5.52090 | 106.89538 | 9671 ft | 302 kts | 173° |
| 2026-05-05 16:53 | -5.54208 | 106.89726 | 9347 ft | 298 kts | 173° |
| 2026-05-05 16:53 | -5.56275 | 106.89863 | 9028 ft | 295 kts | 175° |
| 2026-05-05 16:53 | -5.58333 | 106.89932 | 8709 ft | 291 kts | 176° |
| 2026-05-05 16:53 | -5.60361 | 106.89952 | 8395 ft | 288 kts | 178° |
| 2026-05-05 16:54 | -5.62347 | 106.89945 | 8086 ft | 284 kts | 178° |
| 2026-05-05 16:54 | -5.64339 | 106.89925 | 7776 ft | 281 kts | 178° |
| 2026-05-05 16:54 | -5.66327 | 106.89898 | 7467 ft | 277 kts | 178° |
| 2026-05-05 16:54 | -5.68262 | 106.89869 | 7166 ft | 274 kts | 178° |
| 2026-05-05 16:55 | -5.70165 | 106.89841 | 6966 ft | 266 kts | 178° |
| 2026-05-05 16:55 | -5.72003 | 106.89812 | 6947 ft | 251 kts | 178° |
| 2026-05-05 16:55 | -5.73730 | 106.89779 | 6714 ft | 249 kts | 178° |
| 2026-05-05 16:55 | -5.75492 | 106.89742 | 6397 ft | 248 kts | 178° |
| 2026-05-05 16:56 | -5.77231 | 106.89705 | 6096 ft | 247 kts | 178° |
| 2026-05-05 16:56 | -5.78937 | 106.89669 | 5810 ft | 245 kts | 178° |
| 2026-05-05 16:56 | -5.80658 | 106.89634 | 5522 ft | 243 kts | 178° |
| 2026-05-05 16:56 | -5.82378 | 106.89597 | 5236 ft | 242 kts | 178° |
| 2026-05-05 16:57 | -5.84073 | 106.89562 | 4952 ft | 240 kts | 179° |
| 2026-05-05 16:57 | -5.85744 | 106.89526 | 4674 ft | 238 kts | 179° |
| 2026-05-05 16:57 | -5.87425 | 106.89489 | 4395 ft | 237 kts | 179° |
| 2026-05-05 16:57 | -5.89077 | 106.89455 | 4120 ft | 235 kts | 179° |
| 2026-05-05 16:58 | -5.90739 | 106.89420 | 3846 ft | 234 kts | 179° |
| 2026-05-05 16:58 | -5.92371 | 106.89385 | 3579 ft | 233 kts | 179° |
| 2026-05-05 16:58 | -5.94013 | 106.89350 | 3311 ft | 231 kts | 179° |
| 2026-05-05 16:58 | -5.95617 | 106.89284 | 3055 ft | 230 kts | 187° |
| 2026-05-05 16:59 | -5.97055 | 106.88632 | 2999 ft | 226 kts | 217° |
| 2026-05-05 16:59 | -5.98260 | 106.87617 | 2982 ft | 215 kts | 219° |
| 2026-05-05 16:59 | -5.99381 | 106.86646 | 2983 ft | 214 kts | 219° |
| 2026-05-05 16:59 | -6.00538 | 106.85663 | 2986 ft | 214 kts | 218° |
| 2026-05-05 17:00 | -6.01667 | 106.84718 | 2986 ft | 215 kts | 218° |
| 2026-05-05 17:00 | -6.02842 | 106.83743 | 2986 ft | 215 kts | 218° |
| 2026-05-05 17:00 | -6.03998 | 106.82789 | 2988 ft | 215 kts | 219° |
| 2026-05-05 17:00 | -6.05019 | 106.81663 | 2975 ft | 217 kts | 238° |
| 2026-05-05 17:01 | -6.05667 | 106.80301 | 2780 ft | 220 kts | 249° |
| 2026-05-05 17:01 | -6.06188 | 106.78828 | 2421 ft | 223 kts | 250° |
| 2026-05-05 17:01 | -6.06705 | 106.77393 | 2222 ft | 212 kts | 249° |
| 2026-05-05 17:01 | -6.07236 | 106.76029 | 1911 ft | 203 kts | 248° |
| 2026-05-05 17:02 | -6.07748 | 106.74761 | 1633 ft | 193 kts | 247° |
| 2026-05-05 17:02 | -6.08248 | 106.73526 | 1368 ft | 184 kts | 247° |
| 2026-05-05 17:02 | -6.08705 | 106.72386 | 1129 ft | 169 kts | 248° |
| 2026-05-05 17:02 | -6.09124 | 106.71339 | 953 ft | 159 kts | 248° |
| 2026-05-05 17:03 | -6.09487 | 106.70430 | 773 ft | 155 kts | 248° |
| 2026-05-05 17:03 | -6.10251 | 106.68528 | 402 ft | 154 kts | 248° |
| 2026-05-05 17:03 | -6.10669 | 106.67499 | 187 ft | 153 kts | 250° |
| 2026-05-05 17:04 | -6.11755 | 106.64795 | 47 ft | 34 kts | 231° |
| 2026-05-05 17:05 | -6.11855 | 106.64681 | 47 ft | 16 kts | 217° |
| 2026-05-05 17:05 | -6.11937 | 106.64635 | 47 ft | 11 kts | 165° |
| 2026-05-05 17:05 | -6.11971 | 106.64698 | 47 ft | 11 kts | 66° |
| 2026-05-05 17:05 | -6.11939 | 106.64774 | 47 ft | 12 kts | 68° |
| 2026-05-05 17:06 | -6.11909 | 106.64853 | 47 ft | 12 kts | 70° |
| 2026-05-05 17:06 | -6.11878 | 106.64937 | 47 ft | 13 kts | 69° |
| 2026-05-05 17:06 | -6.11842 | 106.65024 | 47 ft | 14 kts | 67° |
| 2026-05-05 17:06 | -6.11802 | 106.65120 | 47 ft | 15 kts | 68° |
| 2026-05-05 17:07 | -6.11809 | 106.65223 | 47 ft | 16 kts | 136° |
| 2026-05-05 17:07 | -6.11820 | 106.65324 | 47 ft | 17 kts | 66° |
| 2026-05-05 17:07 | -6.11773 | 106.65439 | 47 ft | 18 kts | 69° |
| 2026-05-05 17:07 | -6.11730 | 106.65562 | 47 ft | 18 kts | 89° |
| 2026-05-05 17:08 | -6.11828 | 106.65637 | 47 ft | 19 kts | 160° |
| 2026-05-05 17:08 | -6.11956 | 106.65689 | 47 ft | 20 kts | 158° |
| 2026-05-05 17:08 | -6.12084 | 106.65739 | 47 ft | 16 kts | 158° |
| 2026-05-05 17:08 | -6.12177 | 106.65756 | 47 ft | 9 kts | 199° |
| 2026-05-05 17:09 | -6.12187 | 106.65719 | 47 ft | 7 kts | 285° |
| 2026-05-05 17:09 | -6.12176 | 106.65676 | 47 ft | 7 kts | 285° |
| 2026-05-05 17:09 | -6.12171 | 106.65659 | 47 ft | 0 kts | 286° |